Time;durP1;ratioP1;P1;durP2;ratioP2;P2;SDS_P1;SDS_P2;PMS_P1;PMS_P2;Temp;Humidity;BMP_temperature;BMP_pressure;BME280_temperature;BME280_humidity;BME280_pressure;Samples;Min_cycle;Max_cycle;Signal;HPM_P1;HPM_P2
2022/01/23 00:02:08;;;;;;;28.95;14.85;;;;;;;-1.67;100.00;99717.56;2150461;83;21068;-84
2022/01/23 00:04:55;;;;;;;27.27;11.68;;;;;;;-1.65;100.00;99726.02;2162458;81;21136;-83
2022/01/23 00:07:55;;;;;;;22.48;11.10;;;;;;;-1.67;100.00;99724.44;2188134;81;21536;-84
2022/01/23 00:10:56;;;;;;;28.67;13.60;;;;;;;-1.74;100.00;99728.63;2187881;81;21261;-84
2022/01/23 00:20:17;;;;;;;25.92;12.70;;;;;;;-1.83;100.00;99717.53;2155040;83;21103;-83
2022/01/23 00:23:33;;;;;;;26.73;12.78;;;;;;;-1.88;100.00;99723.34;2154848;83;21001;-84
2022/01/23 00:33:07;;;;;;;26.97;13.03;;;;;;;-1.98;100.00;99718.28;2153114;83;21115;-84
2022/01/23 00:36:08;;;;;;;29.70;13.90;;;;;;;-1.98;100.00;99720.02;2153065;83;20954;-84
2022/01/23 00:39:09;;;;;;;24.77;12.90;;;;;;;-2.01;100.00;99714.14;2214916;79;21020;-84
2022/01/23 00:42:10;;;;;;;26.50;13.62;;;;;;;-1.97;100.00;99719.94;2264321;79;21016;-84
2022/01/23 00:45:32;;;;;;;22.58;11.22;;;;;;;-2.01;100.00;99718.00;2265196;78;20976;-83
2022/01/23 00:48:35;;;;;;;29.02;11.93;;;;;;;-2.03;100.00;99716.39;2265221;79;21021;-83
2022/01/23 00:51:34;;;;;;;25.97;12.18;;;;;;;-2.06;100.00;99721.23;2264547;78;21044;-82
2022/01/23 00:54:35;;;;;;;22.60;11.48;;;;;;;-2.04;100.00;99712.99;2263007;79;21049;-82
2022/01/23 00:57:36;;;;;;;26.33;13.22;;;;;;;-2.05;100.00;99717.75;2262884;79;20981;-84
2022/01/23 01:00:37;;;;;;;22.60;11.12;;;;;;;-2.06;100.00;99721.68;2262416;79;20977;-84
2022/01/23 01:03:37;;;;;;;23.83;11.73;;;;;;;-2.07;100.00;99716.17;2262693;79;20958;-83
2022/01/23 01:06:38;;;;;;;27.67;13.05;;;;;;;-2.14;100.00;99712.24;2264926;79;21052;-83
2022/01/23 01:09:40;;;;;;;28.80;13.13;;;;;;;-2.12;100.00;99718.13;2264926;79;21473;-82
2022/01/23 01:12:46;;;;;;;21.73;10.35;;;;;;;-2.10;100.00;99707.35;2264609;79;21008;-82
2022/01/23 01:16:34;;;;;;;30.43;14.50;;;;;;;-2.09;100.00;99709.01;2262416;79;20962;-82
2022/01/23 01:32:37;;;;;;;36.00;15.08;;;;;;;-2.13;100.00;99703.18;2358179;75;21057;-82
2022/01/23 01:35:31;;;;;;;29.60;14.75;;;;;;;-2.13;100.00;99710.87;2354312;75;21042;-83
2022/01/23 01:38:28;;;;;;;28.80;13.55;;;;;;;-2.13;100.00;99704.46;2344501;75;20980;-82
2022/01/23 01:41:29;;;;;;;29.67;14.53;;;;;;;-2.15;100.00;99707.56;2314656;77;21053;-82
2022/01/23 01:44:30;;;;;;;32.33;14.98;;;;;;;-2.12;100.00;99706.58;2314634;77;20993;-81
2022/01/23 01:47:31;;;;;;;31.35;12.78;;;;;;;-2.13;100.00;99706.20;2314650;77;21066;-82
2022/01/23 01:50:32;;;;;;;30.15;12.90;;;;;;;-2.12;100.00;99706.58;2314783;75;20948;-82
2022/01/23 01:53:33;;;;;;;25.30;11.22;;;;;;;-2.20;100.00;99715.09;2319609;75;20991;-82
2022/01/23 01:56:49;;;;;;;29.80;12.82;;;;;;;-2.22;100.00;99713.89;2358053;75;21042;-83
2022/01/23 02:54:58;;;;;;;23.40;12.05;;;;;;;-2.36;100.00;99742.80;2355347;75;20964;-86
2022/01/23 02:58:01;;;;;;;24.40;13.00;;;;;;;-2.39;100.00;99739.53;2355431;75;20969;-86
2022/01/23 03:01:12;;;;;;;30.57;13.20;;;;;;;-2.35;100.00;99748.30;2336122;75;21568;-86
2022/01/23 03:04:09;;;;;;;25.68;12.45;;;;;;;-2.34;100.00;99751.24;2310905;77;21092;-86
2022/01/23 03:10:27;;;;;;;18.75;9.85;;;;;;;-2.35;100.00;99755.17;2311508;77;21568;-87
2022/01/23 03:13:52;;;;;;;25.75;13.45;;;;;;;-2.37;100.00;99742.42;2309266;77;20983;-87
2022/01/23 03:27:03;;;;;;;27.48;14.05;;;;;;;-2.35;100.00;99738.49;2357805;75;20979;-85
2022/01/23 03:33:17;;;;;;;30.23;14.23;;;;;;;-2.35;100.00;99732.91;2312280;77;21025;-83
2022/01/23 03:36:18;;;;;;;23.32;12.47;;;;;;;-2.31;100.00;99727.17;2314910;75;20969;-85
2022/01/23 03:39:19;;;;;;;25.75;12.15;;;;;;;-2.31;100.00;99738.71;2314546;77;21052;-85
2022/01/23 03:42:20;;;;;;;23.35;12.63;;;;;;;-2.26;100.00;99730.81;2314574;77;21448;-85
2022/01/23 03:45:48;;;;;;;27.05;13.32;;;;;;;-2.26;100.00;99739.79;2313410;77;20949;-85
2022/01/23 03:51:27;;;;;;;28.40;12.37;;;;;;;-2.30;100.00;99750.18;2312639;77;20996;-85
2022/01/23 03:54:28;;;;;;;33.00;12.70;;;;;;;-2.32;100.00;99756.30;2312493;77;20950;-85
2022/01/23 03:57:28;;;;;;;31.52;12.78;;;;;;;-2.35;100.00;99760.30;2314264;75;21024;-84
2022/01/23 04:00:29;;;;;;;24.05;11.55;;;;;;;-2.41;100.00;99760.13;2314822;77;21020;-85
2022/01/23 04:03:32;;;;;;;25.00;12.95;;;;;;;-2.46;100.00;99758.25;2314915;77;21041;-86
2022/01/23 04:06:33;;;;;;;29.55;13.90;;;;;;;-2.49;100.00;99764.78;2330574;75;20974;-86
2022/01/23 04:09:34;;;;;;;24.15;12.70;;;;;;;-2.47;100.00;99758.30;2357252;75;21094;-86
2022/01/23 04:12:46;;;;;;;29.40;13.43;;;;;;;-2.51;100.00;99765.31;2357789;75;21494;-86
2022/01/23 04:16:05;;;;;;;27.30;12.65;;;;;;;-2.48;100.00;99774.14;2350999;75;20974;-84
2022/01/23 05:01:11;;;;;;;35.05;16.50;;;;;;;-2.57;100.00;99825.41;2036099;87;21146;-87
2022/01/23 05:04:14;;;;;;;33.05;17.15;;;;;;;-2.55;100.00;99836.89;2036150;86;21135;-88
2022/01/23 05:07:13;;;;;;;30.50;15.00;;;;;;;-2.52;100.00;99838.03;2037758;87;21056;-87
2022/01/23 05:10:13;;;;;;;28.12;13.60;;;;;;;-2.48;100.00;99841.27;2051420;86;21546;-84
2022/01/23 05:13:13;;;;;;;36.17;17.23;;;;;;;-2.46;100.00;99839.05;2049311;87;21008;-85
2022/01/23 05:16:14;;;;;;;36.90;17.62;;;;;;;-2.46;100.00;99822.37;2049386;87;21762;-85
2022/01/23 05:19:15;;;;;;;32.50;16.17;;;;;;;-2.47;100.00;99823.70;2065432;84;21040;-84
2022/01/23 05:25:26;;;;;;;29.27;13.22;;;;;;;-2.48;100.00;99820.30;2254872;79;20982;-84
2022/01/23 05:28:28;;;;;;;33.73;16.00;;;;;;;-2.49;100.00;99827.62;2187111;81;21125;-85
2022/01/23 05:31:29;;;;;;;33.05;16.07;;;;;;;-2.49;100.00;99826.79;2150257;83;21133;-86
2022/01/23 05:34:30;;;;;;;36.40;15.88;;;;;;;-2.52;100.00;99830.34;2150791;82;20970;-86
2022/01/23 05:37:32;;;;;;;34.18;15.75;;;;;;;-2.49;100.00;99822.48;2215068;80;21020;-84
2022/01/23 05:40:33;;;;;;;33.45;17.48;;;;;;;-2.46;100.00;99822.83;2215007;80;21056;-85
2022/01/23 05:43:34;;;;;;;27.73;15.93;;;;;;;-2.50;100.00;99816.98;2252072;79;21041;-85
2022/01/23 05:46:35;;;;;;;40.40;15.88;;;;;;;-2.54;100.00;99815.48;2252997;79;20985;-85
2022/01/23 05:49:36;;;;;;;32.35;16.10;;;;;;;-2.56;100.00;99822.41;2252854;79;20973;-85
2022/01/23 05:52:36;;;;;;;34.70;17.60;;;;;;;-2.59;100.00;99834.08;2252941;79;21513;-85
2022/01/23 05:55:37;;;;;;;30.90;17.32;;;;;;;-2.58;100.00;99820.34;2255005;79;20953;-85
2022/01/23 05:58:38;;;;;;;37.20;18.45;;;;;;;-2.53;100.00;99827.39;2254996;79;22033;-86
2022/01/23 06:01:39;;;;;;;35.60;18.17;;;;;;;-2.49;100.00;99835.31;2255006;79;20965;-86
2022/01/23 06:04:40;;;;;;;27.13;15.83;;;;;;;-2.41;100.00;99847.80;2253508;79;21453;-85
2022/01/23 06:07:42;;;;;;;32.63;16.10;;;;;;;-2.43;100.00;99856.02;2255027;79;20981;-82
2022/01/23 06:10:53;;;;;;;51.77;24.70;;;;;;;-2.41;100.00;99863.19;2254883;79;21092;-82
2022/01/23 06:13:48;;;;;;;41.33;21.45;;;;;;;-2.39;100.00;99858.36;2253818;79;21057;-84
2022/01/23 06:16:49;;;;;;;39.92;19.25;;;;;;;-2.39;100.00;99863.48;2254759;79;20962;-82
2022/01/23 06:19:50;;;;;;;34.15;18.40;;;;;;;-2.44;100.00;99871.86;2252814;79;20989;-83
2022/01/23 06:22:51;;;;;;;35.43;20.55;;;;;;;-2.47;100.00;99861.75;2252841;79;21579;-85
2022/01/23 06:25:52;;;;;;;35.65;18.57;;;;;;;-2.46;100.00;99871.11;2254416;79;20915;-84
2022/01/23 06:28:52;;;;;;;41.65;19.27;;;;;;;-2.47;100.00;99866.88;2254444;79;21038;-82
2022/01/23 06:31:55;;;;;;;34.43;18.12;;;;;;;-2.52;100.00;99879.06;2256657;79;21433;-84
2022/01/23 06:34:56;;;;;;;37.28;18.67;;;;;;;-2.58;100.00;99874.20;2255042;79;20976;-82
2022/01/23 06:37:57;;;;;;;32.50;19.40;;;;;;;-2.59;100.00;99878.50;2254973;79;21008;-84
2022/01/23 06:40:57;;;;;;;38.63;20.30;;;;;;;-2.63;100.00;99882.11;2254251;79;20949;-84
2022/01/23 06:43:58;;;;;;;42.70;20.45;;;;;;;-2.61;100.00;99892.30;2252819;79;21001;-85
2022/01/23 06:47:00;;;;;;;48.80;23.92;;;;;;;-2.57;100.00;99898.94;2252593;79;20977;-85
2022/01/23 06:50:00;;;;;;;55.25;25.20;;;;;;;-2.53;100.00;99901.77;2252567;79;21293;-82
2022/01/23 06:53:01;;;;;;;52.55;25.43;;;;;;;-2.50;100.00;99897.77;2252740;79;20973;-83
2022/01/23 06:56:02;;;;;;;56.40;24.52;;;;;;;-2.49;100.00;99881.94;2254779;79;20910;-83
2022/01/23 06:59:03;;;;;;;53.33;25.55;;;;;;;-2.51;100.00;99885.86;2254735;79;21040;-83
2022/01/23 07:02:03;;;;;;;56.33;25.10;;;;;;;-2.46;100.00;99884.38;2252878;79;21440;-83
2022/01/23 07:05:04;;;;;;;53.70;25.25;;;;;;;-2.40;100.00;99884.91;2252665;79;20973;-83
2022/01/23 07:08:05;;;;;;;45.73;23.73;;;;;;;-2.31;100.00;99887.06;2254748;79;20942;-83
2022/01/23 07:11:06;;;;;;;55.25;28.70;;;;;;;-2.26;100.00;99883.47;2254692;79;21544;-86
2022/01/23 07:14:06;;;;;;;57.30;28.30;;;;;;;-2.22;100.00;99893.51;2254836;79;21025;-83
2022/01/23 07:17:07;;;;;;;50.15;29.23;;;;;;;-2.18;100.00;99896.79;2254533;79;20992;-83
2022/01/23 07:20:08;;;;;;;54.33;27.55;;;;;;;-2.18;100.00;99896.34;2250714;79;21006;-86
2022/01/23 07:23:09;;;;;;;59.35;28.87;;;;;;;-2.11;100.00;99905.84;2248671;79;21033;-83
2022/01/23 07:26:10;;;;;;;47.60;22.50;;;;;;;-2.07;100.00;99921.05;2248382;79;21448;-81
2022/01/23 07:29:11;;;;;;;51.25;23.40;;;;;;;-2.03;100.00;99925.58;2248779;79;22492;-80
2022/01/23 07:32:12;;;;;;;47.00;22.75;;;;;;;-2.03;100.00;99921.27;2250804;79;21043;-82
2022/01/23 07:35:13;;;;;;;48.80;23.55;;;;;;;-2.02;100.00;99935.77;2250938;79;21484;-84
2022/01/23 07:38:16;;;;;;;39.45;21.42;;;;;;;-2.05;100.00;99934.64;2250922;79;21025;-84
2022/01/23 07:41:16;;;;;;;45.55;24.75;;;;;;;-2.06;100.00;99934.26;2249604;79;21493;-86
2022/01/23 07:44:17;;;;;;;47.38;22.73;;;;;;;-2.03;100.00;99937.12;2251414;79;21040;-90
2022/01/23 07:47:17;;;;;;;43.02;21.55;;;;;;;-1.96;100.00;99950.06;2251044;79;21464;-80
2022/01/23 07:50:20;;;;;;;42.83;21.60;;;;;;;-1.94;100.00;99953.84;2223633;79;20977;-86
2022/01/23 07:53:21;;;;;;;41.40;21.77;;;;;;;-1.91;100.00;99963.99;2221858;79;20969;-82
2022/01/23 07:56:22;;;;;;;54.27;27.42;;;;;;;-1.83;100.00;99972.14;2256031;79;20957;-83
2022/01/23 07:59:23;;;;;;;44.58;25.37;;;;;;;-1.68;100.00;99967.59;2247298;79;20937;-83
2022/01/23 08:02:23;;;;;;;47.70;24.18;;;;;;;-1.68;100.00;99967.59;2216075;80;21016;-80
2022/01/23 08:05:24;;;;;;;49.40;24.80;;;;;;;-1.57;100.00;99986.34;2218966;79;21001;-86
2022/01/23 08:08:25;;;;;;;47.40;23.98;;;;;;;-1.55;100.00;99992.27;2256072;79;20973;-79
2022/01/23 08:11:26;;;;;;;46.20;25.02;;;;;;;-1.55;100.00;100001.27;2256432;79;20946;-80
2022/01/23 08:14:27;;;;;;;45.50;24.40;;;;;;;-1.54;100.00;100003.75;2256072;79;20989;-84
2022/01/23 08:17:27;;;;;;;41.20;21.25;;;;;;;-1.51;100.00;100006.17;2225945;79;20973;-81
2022/01/23 08:20:28;;;;;;;40.98;21.23;;;;;;;-1.48;100.00;100008.58;2217963;80;21032;-81
2022/01/23 08:23:30;;;;;;;42.33;24.18;;;;;;;-1.36;100.00;100001.23;2239913;79;20975;-80
2022/01/23 08:26:30;;;;;;;41.75;22.45;;;;;;;-1.28;100.00;100002.53;2240478;79;21038;-82
2022/01/23 08:29:31;;;;;;;41.40;22.00;;;;;;;-1.17;100.00;100004.13;2239015;79;21423;-85
2022/01/23 08:32:32;;;;;;;49.90;24.45;;;;;;;-1.11;100.00;100013.25;2238362;79;20985;-81
2022/01/23 08:35:33;;;;;;;43.13;23.07;;;;;;;-1.02;100.00;100022.27;2238261;79;21562;-82
2022/01/23 08:38:34;;;;;;;43.17;23.42;;;;;;;-0.98;100.00;100020.77;2238459;79;20959;-82
2022/01/23 08:41:50;;;;;;;62.33;29.00;;;;;;;-0.94;100.00;100026.13;2240385;78;21016;-80
2022/01/23 08:44:51;;;;;;;55.38;26.97;;;;;;;-0.86;100.00;100023.19;2240562;79;21038;-82
2022/01/23 08:47:52;;;;;;;42.95;22.37;;;;;;;-0.78;100.00;100035.67;2240542;79;21003;-82
2022/01/23 08:50:52;;;;;;;44.53;24.18;;;;;;;-0.72;100.00;100037.95;2240702;79;20990;-83
2022/01/23 08:53:53;;;;;;;41.25;23.75;;;;;;;-0.72;100.00;100046.50;2240417;78;21015;-83
2022/01/23 08:56:54;;;;;;;44.58;22.22;;;;;;;-0.64;100.00;100043.52;2240288;79;20971;-86
2022/01/23 08:59:55;;;;;;;40.90;21.27;;;;;;;-0.53;100.00;100051.56;2241101;78;21478;-80
2022/01/23 09:02:56;;;;;;;42.10;21.68;;;;;;;-0.48;100.00;100047.45;2241935;78;21039;-81
2022/01/23 09:05:57;;;;;;;39.40;23.12;;;;;;;-0.52;100.00;100050.65;2241772;78;20975;-80
2022/01/23 09:08:59;;;;;;;40.63;21.37;;;;;;;-0.51;100.00;100042.47;2240258;79;20939;-80
2022/01/23 09:12:07;;;;;;;36.13;20.82;;;;;;;-0.45;100.00;100047.31;2240367;79;21016;-78
2022/01/23 09:15:03;;;;;;;38.28;21.52;;;;;;;-0.40;100.00;100050.47;2239063;78;20967;-81
2022/01/23 09:18:03;;;;;;;49.03;26.12;;;;;;;-0.41;100.00;100046.24;2240247;79;21514;-79
2022/01/23 09:21:04;;;;;;;43.02;24.90;;;;;;;-0.40;100.00;100051.77;2218734;79;21342;-78
2022/01/23 09:24:05;;;;;;;38.23;20.35;;;;;;;-0.34;100.00;100056.61;2201386;81;21032;-80
2022/01/23 09:27:08;;;;;;;52.80;27.20;;;;;;;-0.26;100.00;100054.94;2201948;81;20996;-80
2022/01/23 09:30:17;;;;;;;43.87;21.30;;;;;;;-0.20;100.00;100058.46;2202013;81;20993;-80
2022/01/23 09:33:11;;;;;;;39.78;21.90;;;;;;;-0.12;100.00;100053.75;2200459;81;21058;-78
2022/01/23 09:36:14;;;;;;;44.95;25.12;;;;;;;-0.09;100.00;100051.02;2094597;85;21040;-80
2022/01/23 09:39:15;;;;;;;49.83;24.85;;;;;;;-0.01;100.00;100059.17;2095421;85;21139;-79
2022/01/23 09:42:16;;;;;;;49.35;26.45;;;;;;;0.15;100.00;100060.04;2096034;85;21008;-81
2022/01/23 09:45:17;;;;;;;43.13;24.05;;;;;;;0.27;100.00;100063.70;2095584;85;21119;-79
2022/01/23 09:48:18;;;;;;;42.53;24.40;;;;;;;0.29;100.00;100072.20;2093765;85;21077;-78
2022/01/23 09:51:19;;;;;;;45.17;24.85;;;;;;;0.29;100.00;100076.07;2093747;85;21103;-78
2022/01/23 09:54:20;;;;;;;33.95;21.40;;;;;;;0.26;100.00;100079.62;2093744;85;21001;-77
2022/01/23 09:57:24;;;;;;;41.53;23.42;;;;;;;0.31;100.00;100075.98;2093673;85;21111;-78
2022/01/23 10:00:24;;;;;;;51.42;27.17;;;;;;;0.43;100.00;100074.86;2094771;85;21123;-78
2022/01/23 10:03:25;;;;;;;51.58;23.52;;;;;;;0.56;100.00;100077.17;2095066;85;21076;-79
2022/01/23 10:06:26;;;;;;;38.42;21.10;;;;;;;0.61;100.00;100075.61;2093862;85;20957;-78
2022/01/23 10:09:27;;;;;;;48.28;24.45;;;;;;;0.66;100.00;100071.05;2094053;85;21012;-82
2022/01/23 10:12:30;;;;;;;46.92;23.87;;;;;;;0.73;100.00;100068.95;2094397;85;21049;-79
2022/01/23 10:15:32;;;;;;;44.65;23.40;;;;;;;0.88;100.00;100065.53;2095450;85;21107;-79
2022/01/23 10:18:34;;;;;;;41.60;20.20;;;;;;;0.99;100.00;100072.67;2074625;84;21665;-80
2022/01/23 10:21:35;;;;;;;41.53;21.95;;;;;;;0.96;100.00;100068.52;2096519;85;21014;-81
2022/01/23 10:24:36;;;;;;;42.43;21.52;;;;;;;1.00;100.00;100070.45;2096361;85;21161;-80
2022/01/23 10:27:37;;;;;;;41.42;22.17;;;;;;;1.04;100.00;100075.38;2096177;85;21575;-78
2022/01/23 10:30:39;;;;;;;35.35;20.48;;;;;;;1.09;100.00;100089.29;2099060;84;21051;-81
2022/01/23 10:33:40;;;;;;;30.02;17.73;;;;;;;0.96;100.00;100086.58;2112720;83;21128;-80
2022/01/23 10:36:41;;;;;;;38.23;22.32;;;;;;;0.95;100.00;100091.37;2103509;83;21052;-81
2022/01/23 10:39:42;;;;;;;34.30;22.17;;;;;;;0.93;100.00;100084.18;2169431;81;20953;-79
2022/01/23 10:49:12;;;;;;;28.95;18.65;;;;;;;1.12;100.00;100075.78;2152355;81;21014;-80
2022/01/23 10:52:13;;;;;;;34.80;19.73;;;;;;;1.09;100.00;100073.81;2149488;83;21052;-82
2022/01/23 10:55:14;;;;;;;36.98;21.10;;;;;;;1.07;100.00;100079.06;2149762;83;21009;-80
2022/01/23 10:58:15;;;;;;;43.05;22.30;;;;;;;1.17;100.00;100073.39;2164232;81;21011;-78
2022/01/23 11:01:16;;;;;;;39.03;21.73;;;;;;;1.14;100.00;100075.23;2176749;81;20949;-79
2022/01/23 11:04:16;;;;;;;39.00;22.27;;;;;;;1.20;100.00;100075.81;2149566;83;21079;-78
2022/01/23 11:07:17;;;;;;;42.78;23.07;;;;;;;1.29;100.00;100068.84;2149457;83;21011;-79
2022/01/23 11:10:21;;;;;;;37.03;19.95;;;;;;;1.37;100.00;100066.63;2149434;83;21016;-79
2022/01/23 11:19:46;;;;;;;30.55;18.32;;;;;;;1.45;100.00;100067.48;2088134;84;21114;-78
2022/01/23 11:22:47;;;;;;;30.40;19.15;;;;;;;1.49;100.00;100066.39;2093379;85;21162;-79
2022/01/23 11:25:48;;;;;;;33.02;19.75;;;;;;;1.45;100.00;100068.77;2089570;84;20959;-79
2022/01/23 11:28:49;;;;;;;27.82;17.52;;;;;;;1.47;100.00;100071.66;2086842;85;21006;-79
2022/01/23 11:31:50;;;;;;;30.02;20.15;;;;;;;1.42;100.00;100069.78;2086716;85;21074;-79
2022/01/23 11:34:50;;;;;;;38.73;20.30;;;;;;;1.37;100.00;100077.80;2086789;85;21050;-79
2022/01/23 11:37:52;;;;;;;35.33;21.37;;;;;;;1.33;100.00;100075.47;2087179;85;21525;-80
2022/01/23 11:53:47;;;;;;;28.25;18.17;;;;;;;1.38;100.00;100063.98;2196967;79;21485;-78
2022/01/23 11:56:47;;;;;;;35.17;21.45;;;;;;;1.42;100.00;100062.87;2261027;79;21026;-79
2022/01/23 11:59:48;;;;;;;33.90;20.32;;;;;;;1.50;100.00;100064.18;2282641;78;21558;-79
2022/01/23 12:02:49;;;;;;;29.30;17.48;;;;;;;1.58;100.00;100069.27;2303393;77;20915;-79
2022/01/23 12:05:50;;;;;;;30.97;18.25;;;;;;;1.61;100.00;100078.58;2303705;77;22077;-78
2022/01/23 12:08:51;;;;;;;32.17;20.08;;;;;;;1.54;100.00;100079.84;2303503;77;21041;-78
2022/01/23 12:11:54;;;;;;;38.80;21.65;;;;;;;1.45;100.00;100078.63;2303410;77;20946;-80
2022/01/23 12:17:57;;;;;;;30.10;18.92;;;;;;;1.54;100.00;100092.30;2144768;83;21025;-80
2022/01/23 12:20:58;;;;;;;29.85;19.65;;;;;;;1.44;100.00;100088.59;2174525;80;20989;-80
2022/01/23 12:23:58;;;;;;;27.98;17.32;;;;;;;1.40;100.00;100096.15;2176648;80;20988;-77
2022/01/23 12:26:59;;;;;;;32.58;18.85;;;;;;;1.28;100.00;100111.02;2176298;82;21607;-78
2022/01/23 12:30:00;;;;;;;30.52;19.17;;;;;;;1.23;100.00;100113.88;2175893;82;21036;-78
2022/01/23 12:33:01;;;;;;;38.00;22.05;;;;;;;1.17;100.00;100118.08;2176247;82;20972;-81
2022/01/23 12:36:02;;;;;;;41.40;22.00;;;;;;;1.17;100.00;100116.78;2176282;82;20972;-78
2022/01/23 12:39:03;;;;;;;34.38;20.35;;;;;;;1.19;100.00;100115.41;2204542;80;21015;-79
2022/01/23 12:42:05;;;;;;;33.70;20.55;;;;;;;1.23;100.00;100118.20;2191196;80;20973;-79
2022/01/23 12:45:05;;;;;;;36.60;21.12;;;;;;;1.28;100.00;100118.33;2176178;82;20997;-79
2022/01/23 12:48:06;;;;;;;34.60;21.48;;;;;;;1.37;100.00;100126.84;2176408;82;21565;-79
2022/01/23 12:51:07;;;;;;;35.17;22.95;;;;;;;1.43;100.00;100121.31;2176328;82;20977;-80
2022/01/23 12:54:08;;;;;;;40.35;23.83;;;;;;;1.49;100.00;100105.95;2191287;79;20962;-80
2022/01/23 12:57:09;;;;;;;44.77;24.32;;;;;;;1.61;100.00;100108.27;2264163;79;21441;-79
2022/01/23 13:00:10;;;;;;;29.48;18.07;;;;;;;1.61;100.00;100106.98;2228570;80;20968;-80
2022/01/23 13:03:11;;;;;;;40.23;23.65;;;;;;;1.63;100.00;100102.55;2264199;79;21617;-78
2022/01/23 13:06:13;;;;;;;41.02;22.35;;;;;;;1.67;100.00;100109.22;2264038;79;20942;-81
2022/01/23 13:09:18;;;;;;;42.55;24.23;;;;;;;1.73;100.00;100102.38;2274308;77;20985;-81
2022/01/23 13:19:19;;;;;;;36.20;21.97;;;;;;;1.74;100.00;100100.20;2305584;77;21008;-77
2022/01/23 13:31:42;;;;;;;32.00;18.73;;;;;;;1.41;100.00;100103.80;2193698;80;20933;-79
2022/01/23 13:34:41;;;;;;;34.43;19.52;;;;;;;1.35;100.00;100109.30;2220004;80;21059;-78
2022/01/23 13:37:44;;;;;;;41.35;23.07;;;;;;;1.28;100.00;100105.86;2220622;80;21516;-81
2022/01/23 13:40:45;;;;;;;36.77;20.65;;;;;;;1.19;100.00;100114.12;2220584;80;21074;-83
2022/01/23 13:53:48;;;;;;;46.33;24.20;;;;;;;1.10;100.00;100118.91;2181587;82;20994;-81
2022/01/23 14:02:56;;;;;;;49.27;25.08;;;;;;;0.97;100.00;100128.67;2181867;82;21046;-82
2022/01/23 14:05:58;;;;;;;47.13;26.95;;;;;;;0.90;100.00;100141.53;2181549;82;21103;-83
2022/01/23 14:08:59;;;;;;;47.33;24.72;;;;;;;0.87;100.00;100141.70;2203747;80;21112;-83
2022/01/23 14:12:00;;;;;;;48.55;27.60;;;;;;;0.88;100.00;100154.51;2218375;80;20929;-85
2022/01/23 14:15:05;;;;;;;39.92;23.22;;;;;;;0.82;100.00;100159.98;2218484;80;21520;-81
2022/01/23 14:18:03;;;;;;;47.20;25.23;;;;;;;0.75;100.00;100159.97;2217054;80;21107;-80
2022/01/23 14:21:04;;;;;;;41.25;23.50;;;;;;;0.75;100.00;100159.97;2215350;80;22170;-81
2022/01/23 14:24:05;;;;;;;48.23;24.27;;;;;;;0.72;100.00;100167.84;2205029;81;21024;-81
2022/01/23 14:27:09;;;;;;;42.00;23.90;;;;;;;0.69;100.00;100178.33;2268865;78;20882;-81
2022/01/23 14:30:10;;;;;;;42.90;25.62;;;;;;;0.65;100.00;100172.97;2284265;78;21024;-80
2022/01/23 14:33:10;;;;;;;47.85;23.55;;;;;;;0.58;100.00;100173.75;2285601;78;20973;-79
2022/01/23 14:36:11;;;;;;;51.92;27.00;;;;;;;0.46;100.00;100177.80;2285633;78;20980;-83
2022/01/23 14:39:12;;;;;;;61.75;30.12;;;;;;;0.37;100.00;100186.47;2264297;78;20953;-81
2022/01/23 14:42:13;;;;;;;53.38;27.00;;;;;;;0.31;100.00;100182.91;2244384;79;21169;-81
2022/01/23 14:45:14;;;;;;;57.00;26.97;;;;;;;0.20;100.00;100176.57;2244381;79;21019;-78
2022/01/23 14:48:15;;;;;;;60.28;29.32;;;;;;;0.09;100.00;100180.58;2256170;78;20992;-81
2022/01/23 14:51:19;;;;;;;66.33;31.02;;;;;;;0.01;100.00;100185.31;2284966;78;20897;-80
2022/01/23 14:54:18;;;;;;;46.88;25.45;;;;;;;-0.10;100.00;100181.50;2260373;78;21026;-82
2022/01/23 14:57:20;;;;;;;48.33;26.57;;;;;;;-0.21;100.00;100181.66;2245580;79;20987;-81
2022/01/23 15:00:23;;;;;;;53.58;27.42;;;;;;;-0.31;100.00;100184.69;2244018;79;21005;-82
2022/01/23 15:03:24;;;;;;;63.48;33.00;;;;;;;-0.38;100.00;100188.92;2244189;79;21620;-83
2022/01/23 15:06:25;;;;;;;56.83;28.25;;;;;;;-0.45;100.00;100194.00;2204098;81;20970;-82
2022/01/23 15:09:26;;;;;;;59.95;33.73;;;;;;;-0.52;100.00;100193.45;2204023;80;21046;-83
2022/01/23 15:12:32;;;;;;;75.28;36.15;;;;;;;-0.60;100.00;100192.98;2216218;80;21595;-85
2022/01/23 15:15:33;;;;;;;80.30;41.00;;;;;;;-0.61;100.00;100192.61;2223866;80;20987;-87
2022/01/23 15:18:34;;;;;;;86.95;41.10;;;;;;;-0.63;100.00;100191.41;2224007;80;21010;-87
2022/01/23 15:21:36;;;;;;;81.42;36.95;;;;;;;-0.63;100.00;100207.30;2235662;78;21055;-86
2022/01/23 15:24:38;;;;;;;92.25;42.25;;;;;;;-0.65;100.00;100201.36;2230350;79;21505;-85
2022/01/23 15:27:39;;;;;;;92.27;43.63;;;;;;;-0.66;100.00;100210.82;2228711;80;21031;-86
2022/01/23 15:30:40;;;;;;;93.05;43.42;;;;;;;-0.61;100.00;100213.19;2230373;78;21472;-86
2022/01/23 15:33:41;;;;;;;84.47;39.35;;;;;;;-0.61;100.00;100213.19;2227253;80;20928;-84
2022/01/23 15:36:41;;;;;;;86.92;40.08;;;;;;;-0.62;100.00;100217.50;2228676;80;20933;-83
2022/01/23 15:39:42;;;;;;;61.83;33.23;;;;;;;-0.63;100.00;100227.42;2228865;80;21055;-83
2022/01/23 15:42:43;;;;;;;67.17;33.35;;;;;;;-0.69;100.00;100222.55;2236020;79;20976;-85
2022/01/23 15:45:45;;;;;;;70.32;36.90;;;;;;;-0.70;100.00;100229.89;2305682;77;21050;-85
2022/01/23 15:48:46;;;;;;;92.17;44.70;;;;;;;-0.73;100.00;100233.04;2305442;77;21034;-85
2022/01/23 15:51:47;;;;;;;121.35;52.93;;;;;;;-0.78;100.00;100238.41;2281595;77;21499;-84
2022/01/23 15:54:48;;;;;;;125.10;57.13;;;;;;;-0.83;100.00;100236.48;2262200;78;21007;-86
2022/01/23 15:57:49;;;;;;;95.00;44.08;;;;;;;-0.88;100.00;100232.86;2264226;77;21009;-84
2022/01/23 16:00:50;;;;;;;108.40;47.27;;;;;;;-0.93;100.00;100238.65;2264276;78;20958;-83
2022/01/23 16:03:51;;;;;;;104.92;48.28;;;;;;;-0.98;100.00;100236.76;2264215;78;21086;-83
2022/01/23 16:06:52;;;;;;;83.17;42.53;;;;;;;-0.97;100.00;100242.28;2266282;77;20926;-81
2022/01/23 16:09:56;;;;;;;74.95;39.50;;;;;;;-0.97;100.00;100240.16;2257736;79;21038;-82
2022/01/23 16:12:57;;;;;;;86.25;40.92;;;;;;;-0.99;100.00;100246.66;2264239;77;21034;-81
2022/01/23 16:15:58;;;;;;;93.52;45.25;;;;;;;-0.96;100.00;100244.39;2264199;79;20959;-82
2022/01/23 16:18:58;;;;;;;90.70;47.17;;;;;;;-0.96;100.00;100242.66;2263713;79;21034;-82
2022/01/23 16:21:59;;;;;;;103.70;48.00;;;;;;;-0.96;100.00;100250.37;2264016;78;20974;-81
2022/01/23 16:25:00;;;;;;;101.50;50.88;;;;;;;-0.94;100.00;100248.55;2264011;79;21010;-81
2022/01/23 16:28:01;;;;;;;117.57;54.73;;;;;;;-0.93;100.00;100255.37;2264255;79;21069;-80
2022/01/23 16:31:02;;;;;;;140.22;63.40;;;;;;;-0.91;100.00;100256.61;2264167;78;20959;-81
2022/01/23 16:34:03;;;;;;;128.95;62.85;;;;;;;-0.93;100.00;100254.53;2264309;78;21900;-82
2022/01/23 16:37:04;;;;;;;119.30;58.90;;;;;;;-0.93;100.00;100260.96;2301353;77;20947;-80
2022/01/23 16:40:04;;;;;;;126.12;60.98;;;;;;;-0.94;100.00;100266.56;2305792;77;21244;-80
2022/01/23 16:43:05;;;;;;;169.45;75.62;;;;;;;-0.98;100.00;100266.78;2305578;77;20994;-81
2022/01/23 16:46:07;;;;;;;242.93;90.07;;;;;;;-1.00;100.00;100273.28;2281466;77;21474;-79
2022/01/23 16:49:08;;;;;;;279.30;99.83;;;;;;;-1.01;100.00;100273.32;2285864;77;20911;-80
2022/01/23 16:52:11;;;;;;;231.30;97.55;;;;;;;-1.10;100.00;100277.14;2305610;77;21633;-81
2022/01/23 16:55:12;;;;;;;243.93;96.12;;;;;;;-1.19;100.00;100280.11;2305744;77;20963;-81
2022/01/23 16:58:13;;;;;;;278.40;108.80;;;;;;;-1.28;100.00;100280.52;2305715;77;20986;-80
2022/01/23 17:01:14;;;;;;;255.05;93.03;;;;;;;-1.37;100.00;100287.33;2305679;77;20997;-81
2022/01/23 17:04:14;;;;;;;289.80;95.42;;;;;;;-1.49;100.00;100269.43;2305248;77;21001;-80
2022/01/23 17:07:16;;;;;;;351.35;119.50;;;;;;;-1.61;100.00;100282.80;2305691;77;20951;-80
2022/01/23 17:10:16;;;;;;;224.67;92.20;;;;;;;-1.67;100.00;100277.46;2287741;77;21505;-81